sensor_id;sensor_type;location;lat;lon;timestamp;temperature;humidity
24326;DHT22;12448;45.532;5.290;2023-04-06T00:01:07;5.90;68.20
24326;DHT22;12448;45.532;5.290;2023-04-06T00:03:33;5.90;67.40
24326;DHT22;12448;45.532;5.290;2023-04-06T00:05:58;6.00;67.20
24326;DHT22;12448;45.532;5.290;2023-04-06T00:08:25;6.20;67.10
24326;DHT22;12448;45.532;5.290;2023-04-06T00:10:51;6.20;66.70
24326;DHT22;12448;45.532;5.290;2023-04-06T00:13:17;6.40;66.60
24326;DHT22;12448;45.532;5.290;2023-04-06T00:15:43;6.50;66.30
24326;DHT22;12448;45.532;5.290;2023-04-06T00:18:08;6.50;65.60
24326;DHT22;12448;45.532;5.290;2023-04-06T00:20:34;6.60;65.40
24326;DHT22;12448;45.532;5.290;2023-04-06T00:23:00;6.70;65.50
24326;DHT22;12448;45.532;5.290;2023-04-06T00:25:26;6.70;65.20
24326;DHT22;12448;45.532;5.290;2023-04-06T00:27:52;6.70;65.00
24326;DHT22;12448;45.532;5.290;2023-04-06T00:30:18;6.80;65.90
24326;DHT22;12448;45.532;5.290;2023-04-06T00:32:43;6.70;66.70
24326;DHT22;12448;45.532;5.290;2023-04-06T00:35:10;6.70;67.30
24326;DHT22;12448;45.532;5.290;2023-04-06T00:37:36;6.70;67.70
24326;DHT22;12448;45.532;5.290;2023-04-06T00:40:02;6.60;68.20
24326;DHT22;12448;45.532;5.290;2023-04-06T00:42:28;6.60;68.70
24326;DHT22;12448;45.532;5.290;2023-04-06T00:45:01;6.50;68.50
24326;DHT22;12448;45.532;5.290;2023-04-06T00:47:26;6.50;68.80
24326;DHT22;12448;45.532;5.290;2023-04-06T00:49:55;6.50;68.70
24326;DHT22;12448;45.532;5.290;2023-04-06T00:52:22;6.50;68.50
24326;DHT22;12448;45.532;5.290;2023-04-06T00:54:48;6.50;68.60
24326;DHT22;12448;45.532;5.290;2023-04-06T00:57:15;6.50;68.30
24326;DHT22;12448;45.532;5.290;2023-04-06T00:59:40;6.50;67.90
24326;DHT22;12448;45.532;5.290;2023-04-06T01:02:07;6.50;68.20
24326;DHT22;12448;45.532;5.290;2023-04-06T01:04:34;6.50;68.40
24326;DHT22;12448;45.532;5.290;2023-04-06T01:07:00;6.50;68.70
24326;DHT22;12448;45.532;5.290;2023-04-06T01:09:28;6.50;69.10
24326;DHT22;12448;45.532;5.290;2023-04-06T01:11:57;6.50;69.50
24326;DHT22;12448;45.532;5.290;2023-04-06T01:14:24;6.50;69.70
24326;DHT22;12448;45.532;5.290;2023-04-06T01:16:50;6.40;69.50
24326;DHT22;12448;45.532;5.290;2023-04-06T01:19:15;6.30;69.30
24326;DHT22;12448;45.532;5.290;2023-04-06T01:21:42;6.20;68.70
24326;DHT22;12448;45.532;5.290;2023-04-06T01:24:08;6.20;68.60
24326;DHT22;12448;45.532;5.290;2023-04-06T01:26:34;6.20;68.40
24326;DHT22;12448;45.532;5.290;2023-04-06T01:29:01;6.20;68.70
24326;DHT22;12448;45.532;5.290;2023-04-06T01:31:28;6.20;68.90
24326;DHT22;12448;45.532;5.290;2023-04-06T01:33:54;6.20;69.30
24326;DHT22;12448;45.532;5.290;2023-04-06T01:36:20;6.20;69.70
24326;DHT22;12448;45.532;5.290;2023-04-06T01:38:46;6.20;69.70
24326;DHT22;12448;45.532;5.290;2023-04-06T01:41:12;6.20;70.00
24326;DHT22;12448;45.532;5.290;2023-04-06T01:43:37;6.20;69.80
24326;DHT22;12448;45.532;5.290;2023-04-06T01:46:03;6.20;70.10
24326;DHT22;12448;45.532;5.290;2023-04-06T01:48:29;6.20;69.30
24326;DHT22;12448;45.532;5.290;2023-04-06T01:50:55;5.70;68.50
24326;DHT22;12448;45.532;5.290;2023-04-06T01:53:22;6.10;68.50
24326;DHT22;12448;45.532;5.290;2023-04-06T01:55:47;6.10;68.20
24326;DHT22;12448;45.532;5.290;2023-04-06T01:58:13;6.10;68.00
24326;DHT22;12448;45.532;5.290;2023-04-06T02:00:40;6.00;68.10
24326;DHT22;12448;45.532;5.290;2023-04-06T02:03:06;6.00;68.00
24326;DHT22;12448;45.532;5.290;2023-04-06T02:05:33;6.00;68.20
24326;DHT22;12448;45.532;5.290;2023-04-06T02:08:04;6.00;68.20
24326;DHT22;12448;45.532;5.290;2023-04-06T02:10:30;5.90;68.20
24326;DHT22;12448;45.532;5.290;2023-04-06T02:12:56;5.90;68.30
24326;DHT22;12448;45.532;5.290;2023-04-06T02:15:22;5.90;68.50
24326;DHT22;12448;45.532;5.290;2023-04-06T02:17:47;5.80;68.80
24326;DHT22;12448;45.532;5.290;2023-04-06T02:20:13;5.70;69.10
24326;DHT22;12448;45.532;5.290;2023-04-06T02:22:39;5.70;69.40
24326;DHT22;12448;45.532;5.290;2023-04-06T02:25:05;5.60;69.50
24326;DHT22;12448;45.532;5.290;2023-04-06T02:27:31;5.50;69.60
24326;DHT22;12448;45.532;5.290;2023-04-06T02:29:57;5.40;70.00
24326;DHT22;12448;45.532;5.290;2023-04-06T02:32:23;5.40;70.50
24326;DHT22;12448;45.532;5.290;2023-04-06T02:34:48;5.30;70.80
24326;DHT22;12448;45.532;5.290;2023-04-06T02:37:14;5.30;70.90
24326;DHT22;12448;45.532;5.290;2023-04-06T02:39:40;5.40;70.90
24326;DHT22;12448;45.532;5.290;2023-04-06T02:42:06;5.30;71.60
24326;DHT22;12448;45.532;5.290;2023-04-06T02:44:32;5.30;71.10
24326;DHT22;12448;45.532;5.290;2023-04-06T02:46:58;5.30;71.20
24326;DHT22;12448;45.532;5.290;2023-04-06T02:49:23;5.30;71.20
24326;DHT22;12448;45.532;5.290;2023-04-06T02:51:49;5.30;71.10
24326;DHT22;12448;45.532;5.290;2023-04-06T02:54:15;5.40;71.10
24326;DHT22;12448;45.532;5.290;2023-04-06T02:56:40;5.50;70.90
24326;DHT22;12448;45.532;5.290;2023-04-06T02:59:06;5.50;70.70
24326;DHT22;12448;45.532;5.290;2023-04-06T03:01:32;5.60;70.90
24326;DHT22;12448;45.532;5.290;2023-04-06T03:03:57;5.70;70.90
24326;DHT22;12448;45.532;5.290;2023-04-06T03:06:23;5.70;71.10
24326;DHT22;12448;45.532;5.290;2023-04-06T03:08:49;5.70;70.70
24326;DHT22;12448;45.532;5.290;2023-04-06T03:11:15;5.70;70.10
24326;DHT22;12448;45.532;5.290;2023-04-06T03:13:40;5.70;69.60
24326;DHT22;12448;45.532;5.290;2023-04-06T03:16:06;5.70;69.50
24326;DHT22;12448;45.532;5.290;2023-04-06T03:18:32;5.70;69.60
24326;DHT22;12448;45.532;5.290;2023-04-06T03:20:58;5.60;69.70
24326;DHT22;12448;45.532;5.290;2023-04-06T03:23:25;5.60;69.90
24326;DHT22;12448;45.532;5.290;2023-04-06T03:25:51;5.50;70.20
24326;DHT22;12448;45.532;5.290;2023-04-06T03:28:17;5.40;70.30
24326;DHT22;12448;45.532;5.290;2023-04-06T03:30:42;5.30;70.70
24326;DHT22;12448;45.532;5.290;2023-04-06T03:33:09;5.10;70.80
24326;DHT22;12448;45.532;5.290;2023-04-06T03:35:35;5.00;71.20
24326;DHT22;12448;45.532;5.290;2023-04-06T03:38:02;5.00;71.70
24326;DHT22;12448;45.532;5.290;2023-04-06T03:40:28;5.00;71.90
24326;DHT22;12448;45.532;5.290;2023-04-06T03:42:53;5.10;72.30
24326;DHT22;12448;45.532;5.290;2023-04-06T03:45:19;5.10;72.70
24326;DHT22;12448;45.532;5.290;2023-04-06T03:47:45;5.20;72.90
24326;DHT22;12448;45.532;5.290;2023-04-06T03:50:11;5.20;73.10
24326;DHT22;12448;45.532;5.290;2023-04-06T03:52:37;5.20;73.10
24326;DHT22;12448;45.532;5.290;2023-04-06T03:55:03;5.20;73.10
24326;DHT22;12448;45.532;5.290;2023-04-06T03:57:28;5.20;73.00
24326;DHT22;12448;45.532;5.290;2023-04-06T03:59:54;5.20;73.20
24326;DHT22;12448;45.532;5.290;2023-04-06T04:02:20;5.20;73.30
24326;DHT22;12448;45.532;5.290;2023-04-06T04:04:46;5.20;73.10
24326;DHT22;12448;45.532;5.290;2023-04-06T04:07:11;5.20;73.10
24326;DHT22;12448;45.532;5.290;2023-04-06T04:09:37;5.20;73.40
24326;DHT22;12448;45.532;5.290;2023-04-06T04:12:03;5.30;73.20
24326;DHT22;12448;45.532;5.290;2023-04-06T04:14:29;5.30;73.50
24326;DHT22;12448;45.532;5.290;2023-04-06T04:16:54;5.30;73.70
24326;DHT22;12448;45.532;5.290;2023-04-06T04:19:20;5.30;73.80
24326;DHT22;12448;45.532;5.290;2023-04-06T04:21:46;5.30;73.00
24326;DHT22;12448;45.532;5.290;2023-04-06T04:24:12;5.30;72.70
24326;DHT22;12448;45.532;5.290;2023-04-06T04:26:39;5.30;72.90
24326;DHT22;12448;45.532;5.290;2023-04-06T04:29:05;5.30;72.90
24326;DHT22;12448;45.532;5.290;2023-04-06T04:31:31;5.30;72.90
24326;DHT22;12448;45.532;5.290;2023-04-06T04:33:57;5.40;72.60
24326;DHT22;12448;45.532;5.290;2023-04-06T04:36:23;5.40;72.30
24326;DHT22;12448;45.532;5.290;2023-04-06T04:38:51;5.40;72.00
24326;DHT22;12448;45.532;5.290;2023-04-06T04:41:17;5.40;71.80
24326;DHT22;12448;45.532;5.290;2023-04-06T04:43:43;5.40;71.80
24326;DHT22;12448;45.532;5.290;2023-04-06T04:46:08;5.40;72.10
24326;DHT22;12448;45.532;5.290;2023-04-06T04:48:34;5.40;72.00
24326;DHT22;12448;45.532;5.290;2023-04-06T04:51:00;5.40;72.00
24326;DHT22;12448;45.532;5.290;2023-04-06T04:53:26;5.40;72.00
24326;DHT22;12448;45.532;5.290;2023-04-06T04:55:52;5.40;71.90
24326;DHT22;12448;45.532;5.290;2023-04-06T04:58:17;5.50;71.60
24326;DHT22;12448;45.532;5.290;2023-04-06T05:00:45;5.50;71.60
24326;DHT22;12448;45.532;5.290;2023-04-06T05:03:20;5.50;71.40
24326;DHT22;12448;45.532;5.290;2023-04-06T05:05:47;5.50;71.40
24326;DHT22;12448;45.532;5.290;2023-04-06T05:08:13;5.50;71.40
24326;DHT22;12448;45.532;5.290;2023-04-06T05:10:38;5.50;71.50
24326;DHT22;12448;45.532;5.290;2023-04-06T05:13:04;5.40;71.80
24326;DHT22;12448;45.532;5.290;2023-04-06T05:15:30;5.40;72.00
24326;DHT22;12448;45.532;5.290;2023-04-06T05:17:56;5.40;72.20
24326;DHT22;12448;45.532;5.290;2023-04-06T05:20:22;5.40;72.30
24326;DHT22;12448;45.532;5.290;2023-04-06T05:22:47;5.50;72.20
24326;DHT22;12448;45.532;5.290;2023-04-06T05:25:14;5.50;72.20
24326;DHT22;12448;45.532;5.290;2023-04-06T05:27:40;5.50;72.10
24326;DHT22;12448;45.532;5.290;2023-04-06T05:30:07;5.60;71.80
24326;DHT22;12448;45.532;5.290;2023-04-06T05:32:33;5.60;71.40
24326;DHT22;12448;45.532;5.290;2023-04-06T05:34:58;5.60;71.50
24326;DHT22;12448;45.532;5.290;2023-04-06T05:37:24;5.70;71.50
24326;DHT22;12448;45.532;5.290;2023-04-06T05:39:50;5.60;71.50
24326;DHT22;12448;45.532;5.290;2023-04-06T05:42:16;5.60;71.80
24326;DHT22;12448;45.532;5.290;2023-04-06T05:44:42;5.60;72.30
24326;DHT22;12448;45.532;5.290;2023-04-06T05:47:07;5.60;72.40
24326;DHT22;12448;45.532;5.290;2023-04-06T05:49:33;5.60;72.70
24326;DHT22;12448;45.532;5.290;2023-04-06T05:52:00;5.60;73.10
24326;DHT22;12448;45.532;5.290;2023-04-06T05:54:26;5.70;73.20
24326;DHT22;12448;45.532;5.290;2023-04-06T05:56:51;5.70;72.90
24326;DHT22;12448;45.532;5.290;2023-04-06T05:59:17;5.80;72.90
24326;DHT22;12448;45.532;5.290;2023-04-06T06:01:43;5.90;72.70
24326;DHT22;12448;45.532;5.290;2023-04-06T06:04:09;5.90;72.70
24326;DHT22;12448;45.532;5.290;2023-04-06T06:06:34;5.90;72.00
24326;DHT22;12448;45.532;5.290;2023-04-06T06:09:01;6.00;72.00
24326;DHT22;12448;45.532;5.290;2023-04-06T06:11:29;6.00;71.40
24326;DHT22;12448;45.532;5.290;2023-04-06T06:13:55;6.10;72.20
24326;DHT22;12448;45.532;5.290;2023-04-06T06:16:21;6.20;71.80
24326;DHT22;12448;45.532;5.290;2023-04-06T06:18:50;6.30;72.00
24326;DHT22;12448;45.532;5.290;2023-04-06T06:21:15;6.40;72.00
24326;DHT22;12448;45.532;5.290;2023-04-06T06:23:42;6.50;72.20
24326;DHT22;12448;45.532;5.290;2023-04-06T06:26:08;6.60;72.50
24326;DHT22;12448;45.532;5.290;2023-04-06T06:28:34;6.70;72.60
24326;DHT22;12448;45.532;5.290;2023-04-06T06:30:59;6.80;72.90
24326;DHT22;12448;45.532;5.290;2023-04-06T06:33:26;6.80;73.10
24326;DHT22;12448;45.532;5.290;2023-04-06T06:35:52;7.00;73.00
24326;DHT22;12448;45.532;5.290;2023-04-06T06:38:18;7.00;72.80
24326;DHT22;12448;45.532;5.290;2023-04-06T06:40:46;7.10;72.80
24326;DHT22;12448;45.532;5.290;2023-04-06T06:43:15;7.20;73.10
24326;DHT22;12448;45.532;5.290;2023-04-06T06:45:41;7.20;73.20
24326;DHT22;12448;45.532;5.290;2023-04-06T06:48:10;7.30;73.30
24326;DHT22;12448;45.532;5.290;2023-04-06T06:50:36;7.30;73.40
24326;DHT22;12448;45.532;5.290;2023-04-06T06:53:05;7.40;73.40
24326;DHT22;12448;45.532;5.290;2023-04-06T06:55:31;7.40;73.40
24326;DHT22;12448;45.532;5.290;2023-04-06T06:57:57;7.50;73.40
24326;DHT22;12448;45.532;5.290;2023-04-06T07:00:22;7.60;73.40
24326;DHT22;12448;45.532;5.290;2023-04-06T07:02:48;7.60;73.10
24326;DHT22;12448;45.532;5.290;2023-04-06T07:05:17;7.60;72.90
24326;DHT22;12448;45.532;5.290;2023-04-06T07:07:42;7.70;72.70
24326;DHT22;12448;45.532;5.290;2023-04-06T07:10:08;7.80;72.30
24326;DHT22;12448;45.532;5.290;2023-04-06T07:12:35;7.80;72.10
24326;DHT22;12448;45.532;5.290;2023-04-06T07:15:04;7.80;71.70
24326;DHT22;12448;45.532;5.290;2023-04-06T07:17:30;7.80;71.90
24326;DHT22;12448;45.532;5.290;2023-04-06T07:19:59;7.90;72.00
24326;DHT22;12448;45.532;5.290;2023-04-06T07:22:25;7.90;71.80
24326;DHT22;12448;45.532;5.290;2023-04-06T07:24:51;8.00;71.70
24326;DHT22;12448;45.532;5.290;2023-04-06T07:27:19;8.00;71.60
24326;DHT22;12448;45.532;5.290;2023-04-06T07:29:45;8.00;71.40
24326;DHT22;12448;45.532;5.290;2023-04-06T07:32:11;8.10;71.00
24326;DHT22;12448;45.532;5.290;2023-04-06T07:34:37;8.10;70.70
24326;DHT22;12448;45.532;5.290;2023-04-06T07:37:02;8.10;70.50
24326;DHT22;12448;45.532;5.290;2023-04-06T07:39:28;8.10;70.30
24326;DHT22;12448;45.532;5.290;2023-04-06T07:41:57;8.20;70.10
24326;DHT22;12448;45.532;5.290;2023-04-06T07:44:23;8.20;69.80
24326;DHT22;12448;45.532;5.290;2023-04-06T07:46:49;8.20;69.80
24326;DHT22;12448;45.532;5.290;2023-04-06T07:49:20;8.30;68.50
24326;DHT22;12448;45.532;5.290;2023-04-06T07:51:49;8.30;68.40
24326;DHT22;12448;45.532;5.290;2023-04-06T07:54:20;8.30;68.40
24326;DHT22;12448;45.532;5.290;2023-04-06T07:56:49;8.30;68.80
24326;DHT22;12448;45.532;5.290;2023-04-06T07:59:41;8.40;67.90
24326;DHT22;12448;45.532;5.290;2023-04-06T08:02:07;8.50;68.30
24326;DHT22;12448;45.532;5.290;2023-04-06T08:04:39;8.50;68.20
24326;DHT22;12448;45.532;5.290;2023-04-06T08:07:11;8.40;67.00
24326;DHT22;12448;45.532;5.290;2023-04-06T08:09:45;8.50;68.10
24326;DHT22;12448;45.532;5.290;2023-04-06T08:12:11;8.50;68.60
24326;DHT22;12448;45.532;5.290;2023-04-06T08:14:37;8.50;68.20
24326;DHT22;12448;45.532;5.290;2023-04-06T08:17:03;8.50;68.90
24326;DHT22;12448;45.532;5.290;2023-04-06T08:19:28;8.50;69.00
24326;DHT22;12448;45.532;5.290;2023-04-06T08:21:54;8.50;69.40
24326;DHT22;12448;45.532;5.290;2023-04-06T08:24:20;8.50;69.40
24326;DHT22;12448;45.532;5.290;2023-04-06T08:26:46;8.50;69.00
24326;DHT22;12448;45.532;5.290;2023-04-06T08:29:12;8.50;69.20
24326;DHT22;12448;45.532;5.290;2023-04-06T08:31:44;8.50;69.50
24326;DHT22;12448;45.532;5.290;2023-04-06T08:34:10;8.60;70.50
24326;DHT22;12448;45.532;5.290;2023-04-06T08:36:36;8.60;70.40
24326;DHT22;12448;45.532;5.290;2023-04-06T08:39:02;8.70;69.90
24326;DHT22;12448;45.532;5.290;2023-04-06T08:41:27;8.70;69.00
24326;DHT22;12448;45.532;5.290;2023-04-06T08:44:01;8.80;68.40
24326;DHT22;12448;45.532;5.290;2023-04-06T08:46:30;8.80;67.00
24326;DHT22;12448;45.532;5.290;2023-04-06T08:49:02;8.90;65.60
24326;DHT22;12448;45.532;5.290;2023-04-06T08:51:32;9.00;65.70
24326;DHT22;12448;45.532;5.290;2023-04-06T08:53:59;9.00;66.10
24326;DHT22;12448;45.532;5.290;2023-04-06T08:56:26;9.00;66.20
24326;DHT22;12448;45.532;5.290;2023-04-06T08:59:00;9.00;65.10
24326;DHT22;12448;45.532;5.290;2023-04-06T09:01:29;9.00;65.70
24326;DHT22;12448;45.532;5.290;2023-04-06T09:03:58;9.10;66.50
24326;DHT22;12448;45.532;5.290;2023-04-06T09:06:24;9.10;65.00
24326;DHT22;12448;45.532;5.290;2023-04-06T09:08:52;9.10;65.20
24326;DHT22;12448;45.532;5.290;2023-04-06T09:11:18;9.10;65.10
24326;DHT22;12448;45.532;5.290;2023-04-06T09:13:52;9.10;64.90
24326;DHT22;12448;45.532;5.290;2023-04-06T09:16:21;9.20;65.10
24326;DHT22;12448;45.532;5.290;2023-04-06T09:18:49;9.20;66.00
24326;DHT22;12448;45.532;5.290;2023-04-06T09:21:17;9.10;66.50
24326;DHT22;12448;45.532;5.290;2023-04-06T09:23:44;9.10;66.30
24326;DHT22;12448;45.532;5.290;2023-04-06T09:26:17;9.70;68.20
24326;DHT22;12448;45.532;5.290;2023-04-06T09:28:55;9.20;66.50
24326;DHT22;12448;45.532;5.290;2023-04-06T09:31:26;9.20;63.70
24326;DHT22;12448;45.532;5.290;2023-04-06T09:33:53;9.20;64.40
24326;DHT22;12448;45.532;5.290;2023-04-06T09:36:20;9.30;65.10
24326;DHT22;12448;45.532;5.290;2023-04-06T09:38:59;9.40;64.70
24326;DHT22;12448;45.532;5.290;2023-04-06T09:41:27;9.50;64.70
24326;DHT22;12448;45.532;5.290;2023-04-06T09:44:13;9.50;63.10
24326;DHT22;12448;45.532;5.290;2023-04-06T09:46:45;9.50;62.10
24326;DHT22;12448;45.532;5.290;2023-04-06T09:49:12;9.50;62.00
24326;DHT22;12448;45.532;5.290;2023-04-06T09:54:07;9.60;60.10
24326;DHT22;12448;45.532;5.290;2023-04-06T09:56:46;9.80;60.60
24326;DHT22;12448;45.532;5.290;2023-04-06T09:59:28;9.80;61.10
24326;DHT22;12448;45.532;5.290;2023-04-06T10:02:02;9.90;61.50
24326;DHT22;12448;45.532;5.290;2023-04-06T10:05:05;10.00;61.60
24326;DHT22;12448;45.532;5.290;2023-04-06T10:07:35;10.10;61.20
24326;DHT22;12448;45.532;5.290;2023-04-06T10:10:02;10.10;61.40
24326;DHT22;12448;45.532;5.290;2023-04-06T10:12:29;10.20;59.50
24326;DHT22;12448;45.532;5.290;2023-04-06T10:15:01;10.30;58.00
24326;DHT22;12448;45.532;5.290;2023-04-06T10:17:33;10.30;57.40
24326;DHT22;12448;45.532;5.290;2023-04-06T10:22:44;10.40;57.90
24326;DHT22;12448;45.532;5.290;2023-04-06T10:25:34;10.50;56.90
24326;DHT22;12448;45.532;5.290;2023-04-06T10:28:08;10.50;55.30
24326;DHT22;12448;45.532;5.290;2023-04-06T10:30:42;10.40;55.10
24326;DHT22;12448;45.532;5.290;2023-04-06T10:33:14;10.50;54.50
24326;DHT22;12448;45.532;5.290;2023-04-06T10:35:40;10.60;55.20
24326;DHT22;12448;45.532;5.290;2023-04-06T10:38:18;10.70;55.70
24326;DHT22;12448;45.532;5.290;2023-04-06T10:40:50;10.80;57.50
24326;DHT22;12448;45.532;5.290;2023-04-06T10:43:35;11.00;57.40
24326;DHT22;12448;45.532;5.290;2023-04-06T10:46:02;11.10;54.60
24326;DHT22;12448;45.532;5.290;2023-04-06T10:48:44;11.10;52.80
24326;DHT22;12448;45.532;5.290;2023-04-06T10:51:15;11.10;52.90
24326;DHT22;12448;45.532;5.290;2023-04-06T10:53:49;11.10;53.70
24326;DHT22;12448;45.532;5.290;2023-04-06T10:56:17;11.20;53.30
24326;DHT22;12448;45.532;5.290;2023-04-06T10:58:47;11.20;54.00
24326;DHT22;12448;45.532;5.290;2023-04-06T11:01:21;11.30;54.70
24326;DHT22;12448;45.532;5.290;2023-04-06T11:03:52;11.40;54.80
24326;DHT22;12448;45.532;5.290;2023-04-06T11:06:31;11.40;55.60
24326;DHT22;12448;45.532;5.290;2023-04-06T11:09:01;11.50;54.60
24326;DHT22;12448;45.532;5.290;2023-04-06T11:11:26;11.50;55.00
24326;DHT22;12448;45.532;5.290;2023-04-06T11:14:11;11.50;53.50
24326;DHT22;12448;45.532;5.290;2023-04-06T11:16:47;11.60;54.50
24326;DHT22;12448;45.532;5.290;2023-04-06T11:19:31;11.60;55.20
24326;DHT22;12448;45.532;5.290;2023-04-06T11:22:07;11.70;55.60
24326;DHT22;12448;45.532;5.290;2023-04-06T11:27:32;11.70;51.40
24326;DHT22;12448;45.532;5.290;2023-04-06T11:30:00;11.70;52.90
24326;DHT22;12448;45.532;5.290;2023-04-06T11:32:26;11.80;53.40
24326;DHT22;12448;45.532;5.290;2023-04-06T11:34:57;11.80;53.10
24326;DHT22;12448;45.532;5.290;2023-04-06T11:37:26;11.70;54.30
24326;DHT22;12448;45.532;5.290;2023-04-06T11:40:01;11.80;51.20
24326;DHT22;12448;45.532;5.290;2023-04-06T11:42:28;11.80;50.50
24326;DHT22;12448;45.532;5.290;2023-04-06T11:44:58;11.80;49.80
24326;DHT22;12448;45.532;5.290;2023-04-06T11:47:37;11.80;50.00
24326;DHT22;12448;45.532;5.290;2023-04-06T11:50:10;11.80;50.00
24326;DHT22;12448;45.532;5.290;2023-04-06T11:52:36;11.80;51.90
24326;DHT22;12448;45.532;5.290;2023-04-06T11:55:36;11.90;51.40
24326;DHT22;12448;45.532;5.290;2023-04-06T11:58:02;11.90;49.60
24326;DHT22;12448;45.532;5.290;2023-04-06T12:00:28;11.80;49.10
24326;DHT22;12448;45.532;5.290;2023-04-06T12:02:59;11.90;50.70
24326;DHT22;12448;45.532;5.290;2023-04-06T12:05:26;11.90;49.10
24326;DHT22;12448;45.532;5.290;2023-04-06T12:08:04;11.80;49.90
24326;DHT22;12448;45.532;5.290;2023-04-06T12:10:37;11.90;49.10
24326;DHT22;12448;45.532;5.290;2023-04-06T12:13:09;11.80;49.50
24326;DHT22;12448;45.532;5.290;2023-04-06T12:15:47;12.00;49.00
24326;DHT22;12448;45.532;5.290;2023-04-06T12:18:16;12.00;50.70
24326;DHT22;12448;45.532;5.290;2023-04-06T12:20:42;12.20;51.70
24326;DHT22;12448;45.532;5.290;2023-04-06T12:23:10;12.20;51.40
24326;DHT22;12448;45.532;5.290;2023-04-06T12:25:42;12.20;51.70
24326;DHT22;12448;45.532;5.290;2023-04-06T12:28:11;12.30;51.90
24326;DHT22;12448;45.532;5.290;2023-04-06T12:30:37;12.30;52.10
24326;DHT22;12448;45.532;5.290;2023-04-06T12:33:03;12.40;51.80
24326;DHT22;12448;45.532;5.290;2023-04-06T12:35:32;12.40;50.10
24326;DHT22;12448;45.532;5.290;2023-04-06T12:37:58;12.40;51.10
24326;DHT22;12448;45.532;5.290;2023-04-06T12:40:24;12.40;51.40
24326;DHT22;12448;45.532;5.290;2023-04-06T12:42:50;12.40;51.80
24326;DHT22;12448;45.532;5.290;2023-04-06T12:45:16;12.50;52.10
24326;DHT22;12448;45.532;5.290;2023-04-06T12:47:41;12.60;52.40
24326;DHT22;12448;45.532;5.290;2023-04-06T12:50:36;12.60;52.60
24326;DHT22;12448;45.532;5.290;2023-04-06T12:53:08;12.70;51.60
24326;DHT22;12448;45.532;5.290;2023-04-06T12:55:51;12.70;51.70
24326;DHT22;12448;45.532;5.290;2023-04-06T12:58:32;12.70;51.70
24326;DHT22;12448;45.532;5.290;2023-04-06T13:01:13;12.70;52.40
24326;DHT22;12448;45.532;5.290;2023-04-06T13:03:46;12.80;51.40
24326;DHT22;12448;45.532;5.290;2023-04-06T13:06:11;12.80;51.10
24326;DHT22;12448;45.532;5.290;2023-04-06T13:08:39;12.80;48.30
24326;DHT22;12448;45.532;5.290;2023-04-06T13:11:04;12.80;49.70
24326;DHT22;12448;45.532;5.290;2023-04-06T13:13:30;12.80;50.10
24326;DHT22;12448;45.532;5.290;2023-04-06T13:16:01;12.80;48.90
24326;DHT22;12448;45.532;5.290;2023-04-06T13:18:28;12.90;48.20
24326;DHT22;12448;45.532;5.290;2023-04-06T13:20:55;12.80;47.90
24326;DHT22;12448;45.532;5.290;2023-04-06T13:23:24;12.80;47.90
24326;DHT22;12448;45.532;5.290;2023-04-06T13:26:02;12.80;47.00
24326;DHT22;12448;45.532;5.290;2023-04-06T13:28:29;12.80;47.50
24326;DHT22;12448;45.532;5.290;2023-04-06T13:30:55;13.30;47.80
24326;DHT22;12448;45.532;5.290;2023-04-06T13:33:23;12.80;45.70
24326;DHT22;12448;45.532;5.290;2023-04-06T13:35:52;12.80;47.20
24326;DHT22;12448;45.532;5.290;2023-04-06T13:38:21;12.80;47.10
24326;DHT22;12448;45.532;5.290;2023-04-06T13:40:47;12.70;47.20
24326;DHT22;12448;45.532;5.290;2023-04-06T13:43:12;12.80;46.80
24326;DHT22;12448;45.532;5.290;2023-04-06T13:45:38;12.70;47.10
24326;DHT22;12448;45.532;5.290;2023-04-06T13:48:04;12.80;47.70
24326;DHT22;12448;45.532;5.290;2023-04-06T13:50:36;12.80;48.40
24326;DHT22;12448;45.532;5.290;2023-04-06T13:53:02;12.80;48.90
24326;DHT22;12448;45.532;5.290;2023-04-06T13:55:27;12.80;48.90
24326;DHT22;12448;45.532;5.290;2023-04-06T13:57:53;12.80;48.70
24326;DHT22;12448;45.532;5.290;2023-04-06T14:00:20;12.80;48.90
24326;DHT22;12448;45.532;5.290;2023-04-06T14:02:48;12.80;48.50
24326;DHT22;12448;45.532;5.290;2023-04-06T14:05:14;12.80;47.80
24326;DHT22;12448;45.532;5.290;2023-04-06T14:07:52;12.90;48.10
24326;DHT22;12448;45.532;5.290;2023-04-06T14:10:21;12.90;47.00
24326;DHT22;12448;45.532;5.290;2023-04-06T14:12:49;12.70;47.50
24326;DHT22;12448;45.532;5.290;2023-04-06T14:15:15;12.70;46.60
24326;DHT22;12448;45.532;5.290;2023-04-06T14:17:40;12.70;46.60
24326;DHT22;12448;45.532;5.290;2023-04-06T14:20:06;12.60;47.60
24326;DHT22;12448;45.532;5.290;2023-04-06T14:22:32;12.70;48.30
24326;DHT22;12448;45.532;5.290;2023-04-06T14:24:58;12.70;48.10
24326;DHT22;12448;45.532;5.290;2023-04-06T14:27:33;12.60;46.80
24326;DHT22;12448;45.532;5.290;2023-04-06T14:30:07;12.70;46.90
24326;DHT22;12448;45.532;5.290;2023-04-06T14:32:36;12.70;47.50
24326;DHT22;12448;45.532;5.290;2023-04-06T14:35:22;12.70;46.80
24326;DHT22;12448;45.532;5.290;2023-04-06T14:37:50;12.70;46.70
24326;DHT22;12448;45.532;5.290;2023-04-06T14:40:26;12.80;47.50
24326;DHT22;12448;45.532;5.290;2023-04-06T14:42:52;12.80;47.50
24326;DHT22;12448;45.532;5.290;2023-04-06T14:45:18;12.70;47.20
24326;DHT22;12448;45.532;5.290;2023-04-06T14:47:53;12.80;46.60
24326;DHT22;12448;45.532;5.290;2023-04-06T14:50:24;12.80;46.70
24326;DHT22;12448;45.532;5.290;2023-04-06T14:52:50;12.80;46.60
24326;DHT22;12448;45.532;5.290;2023-04-06T14:55:20;12.80;46.80
24326;DHT22;12448;45.532;5.290;2023-04-06T14:57:45;12.80;45.60
24326;DHT22;12448;45.532;5.290;2023-04-06T15:00:29;12.80;46.40
24326;DHT22;12448;45.532;5.290;2023-04-06T15:02:55;12.80;45.40
24326;DHT22;12448;45.532;5.290;2023-04-06T15:05:21;12.80;46.80
24326;DHT22;12448;45.532;5.290;2023-04-06T15:07:47;12.90;47.10
24326;DHT22;12448;45.532;5.290;2023-04-06T15:10:12;12.90;46.70
24326;DHT22;12448;45.532;5.290;2023-04-06T15:12:38;12.90;45.90
24326;DHT22;12448;45.532;5.290;2023-04-06T15:15:04;13.00;46.20
24326;DHT22;12448;45.532;5.290;2023-04-06T15:17:30;12.90;46.00
24326;DHT22;12448;45.532;5.290;2023-04-06T15:19:56;12.90;46.00
24326;DHT22;12448;45.532;5.290;2023-04-06T15:22:21;13.00;46.50
24326;DHT22;12448;45.532;5.290;2023-04-06T15:24:47;13.00;46.40
24326;DHT22;12448;45.532;5.290;2023-04-06T15:27:12;13.00;46.30
24326;DHT22;12448;45.532;5.290;2023-04-06T15:29:38;13.00;46.20
24326;DHT22;12448;45.532;5.290;2023-04-06T15:32:04;13.00;46.70
24326;DHT22;12448;45.532;5.290;2023-04-06T15:34:30;13.10;47.30
24326;DHT22;12448;45.532;5.290;2023-04-06T15:37:00;13.20;47.30
24326;DHT22;12448;45.532;5.290;2023-04-06T15:39:27;13.10;46.40
24326;DHT22;12448;45.532;5.290;2023-04-06T15:41:53;13.10;46.60
24326;DHT22;12448;45.532;5.290;2023-04-06T15:44:19;13.20;46.80
24326;DHT22;12448;45.532;5.290;2023-04-06T15:46:44;13.20;47.30
24326;DHT22;12448;45.532;5.290;2023-04-06T15:49:10;13.20;47.20
24326;DHT22;12448;45.532;5.290;2023-04-06T15:51:36;13.30;47.60
24326;DHT22;12448;45.532;5.290;2023-04-06T15:54:02;13.30;48.20